Airfield :
LOGIN :

Register | Disclaimer

   EN    FR    IT 

 










Legend :    VFR   Marginal VFR   IFR   Intensive IFR   Very Intensive IFR
Visi :
Ceiling :
>= 8 km
>= 3000ft
5 to 8 km
1000 to 3000 ft
1500m to 5 km
500 to 1000 ft
800 to 1500m
200 to 500 ft
< 800m
< 200 ft
Symbols :   Thunderstorms  Fog  Heavy snow  Heavy precipitations  Wind > 20 kt
SIGMETs :     Misc.  Thunderstorms  Icing  Turbulence  Mountain Waves  Volcanic Ashes






- Airport Elevation : 461 ft
- IATA code : WIE


ETOU - Wiesbaden Army

CURRENT METAR :
  • 271836Z AUTO 19006KT 9999 -RA SCT017 06/06 A2970 RMK AO2 SLP065 $

EXPIRED METARs :
  • 271806Z AUTO 20007KT 9999 -RA BKN016 06/06 A2972 RMK AO2 SLP072 $
  • 271736Z AUTO 20007KT 9999 -RA SCT017 06/06 A2973 RMK AO2 SLP076 $
  • 271656Z AUTO 20008KT 9999 -RA OVC019 06/06 A2974 RMK AO2 RAE03RAB11E27RAB29 SLP079 P0002 T00620062 $
  • 271629Z AUTO 21009KT 9999 -RA OVC019 06/06 A2975 RMK AO2 RAE03RAB11E27RAB29 SLP082 $
  • 271611Z AUTO 21008KT 9999 -RA OVC019 06/06 A2975 RMK AO2 RAE03RAB11 SLP082 $
  • 271603Z AUTO 20006KT 9999 OVC019 06/06 A2976 RMK AO2 RAE03 OVC V BKN SLP086 $

TAF TAF ETOU
Valid from the 27 at 12:00 until the 28 at 18:00 UTC


271200Z 2712/2818 20008KT 8000 -DZ BR BKN020 OVC040 620408 QNH2982INS
BECMG 2715/2716 21012G18KT 5000 -RA BR BKN010 OVC035 620309 520109 QNH2980INS
TEMPO 2716/2721 3200 -RA BKN008
BECMG 2720/2721 20012G18KT 4400 BR BKN015 620158 520109 QNH2990INS
BECMG 2809/2810 22015G25KT 1600 RA BR BKN010 BKN080 620309 QNH2988INS
BECMG 2815/2816 24015G20KT 5000 -RA BR OVC015 620309 QNH2985INS TX09/2812Z TN07/2712Z



MET'MAP, your aeronautical weather chart ! - Copyright ORBIFLY December 2007 - Disclaimer

ORBIFLY MET'MAP TEAM :

Programming & Development : Alexandra Zaïnal
Concept & original design : Baudouin d'Aumeries
Assistance for programming : Marc-Olivier Méhu
Technical & hardware support : Manuel Goepfert

Contact : metmap@orbifly.com




SOURCES & CREDITS :

   NOAA